NCAR-RAP Real-Time Weather Data

Output produced by METARs form (17 September 2019  16:12 UTC)
found at http://weather.rap.ucar.edu/surface/
 
KAPN 171554Z VRB06KT 10SM SCT015 19/15 A3024 RMK AO2 SLP240 T01940150
KAPN 171525Z 00000KT 10SM FEW011 18/14 A3025 RMK AO2 T01780144
KAPN 171515Z 15004KT 10SM BKN010 18/14 A3024 RMK AO2 T01780144
KAPN 171454Z 16005KT 10SM BKN009 17/14 A3024 RMK AO2 CIG 005V011 SLP242 T01720144 53000
KAPN 171433Z 15006KT 10SM OVC005 16/14 A3025 RMK AO2 CIG 002V008 T01560144
KAPN 171402Z 12003KT 3SM BR OVC002 15/14 A3025 RMK AO2 T01500144
KAPN 171354Z 14003KT 1SM BR OVC002 14/14 A3024 RMK AO2 SLP243 T01440144
KAPN 171334Z 16003KT 1/2SM FG OVC002 14/14 A3024 RMK AO2 T01390139
KAPN 171316Z 17003KT 1/4SM FG OVC001 14/14 A3024 RMK AO2 T01390139
KAPN 171305Z 16006KT 1/2SM FG OVC001 13/13 A3023 RMK AO2 T01330128
KAPN 171254Z 16004KT 1/4SM FG OVC001 13/12 A3023 RMK AO2 SLP240 T01280122
KAPN 171218Z 00000KT 1/4SM FG OVC001 11/11 A3024 RMK AO2 T01110106
KAPN 171154Z 18003KT 1/4SM FG VV002 10/09 A3024 RMK AO2 SLP243 T01000094 10128 20089 51012
KAPN 171133Z AUTO 00000KT 1/4SM FG VV002 09/09 A3025 RMK AO2 T00940094
KAPN 171110Z AUTO 00000KT 1/4SM FG OVC001 10/09 A3024 RMK AO2 T01000094
KAPN 171054Z AUTO 00000KT 1SM BR OVC001 09/09 A3024 RMK AO2 SLP240 T00940094
KAPN 171045Z AUTO 00000KT 1/2SM FG OVC001 09/09 A3023 RMK AO2 T00940089
KAPN 171029Z AUTO 00000KT 1/4SM FG VV002 09/09 A3023 RMK AO2 T00940094
KAPN 171020Z AUTO 00000KT 1/4SM FG VV001 10/10 A3022 RMK AO2 T01000100
KAPN 171017Z AUTO 00000KT 1/2SM FG VV002 10/09 A3023 RMK AO2 T01000094
KAPN 171005Z AUTO 00000KT 1/2SM FG OVC001 10/09 A3022 RMK AO2 T01000094
KAPN 170954Z AUTO 00000KT 1/2SM FG VV002 09/09 A3022 RMK AO2 SLP234 T00940089
KAPN 170930Z AUTO 00000KT 1/2SM FG VV002 11/10 A3022 RMK AO2 T01060100
KAPN 170922Z AUTO 00000KT 1/2SM FG OVC001 11/10 A3021 RMK AO2 T01060100
KAPN 170900Z AUTO 00000KT 1SM BR OVC001 11/10 A3021 RMK AO2 T01060100
KAPN 170854Z AUTO 00000KT 1/2SM FG VV002 11/10 A3021 RMK AO2 SLP231 T01060100 53004
KAPN 170850Z AUTO 00000KT 1/2SM FG VV002 11/10 A3021 RMK AO2
KAPN 170801Z AUTO 00000KT 1/4SM FG VV001 10/09 A3020 RMK AO2 T01000094
KAPN 170754Z AUTO 00000KT 1/2SM FG VV001 10/10 A3020 RMK AO2 SLP227 T01000100
KAPN 170710Z AUTO 00000KT 1/2SM FG VV001 10/09 A3019 RMK AO2 T01000094
KAPN 170701Z AUTO 00000KT 1/4SM FG VV002 10/10 A3020 RMK AO2 T01000100
KAPN 170654Z AUTO 00000KT 1/2SM FG VV002 11/10 A3020 RMK AO2 SLP226 T01060100
KAPN 170620Z AUTO 00000KT 1/4SM FG BKN002 OVC012 12/12 A3020 RMK AO2 T01220117
KAPN 170611Z AUTO 00000KT 1/2SM FG BKN002 OVC012 12/12 A3020 RMK AO2 T01220117
KAPN 170607Z AUTO 00000KT 1 3/4SM BR SCT002 OVC012 12/12 A3020 RMK AO2 VIS 1/2 RY 19 T01220117
KAPN 170603Z AUTO 00000KT 5SM BR FEW002 OVC012 12/12 A3020 RMK AO2 VIS 1/2 RY 19 T01220117
KAPN 170554Z AUTO 00000KT 9SM OVC013 13/12 A3019 RMK AO2 VIS 3/4 RY 19 SLP225 T01280122 10172 20128 51003
KAPN 170538Z AUTO 00000KT 4SM BR OVC013 13/13 A3020 RMK AO2 VIS 1 3/4 RY 19 T01280128
KAPN 170531Z AUTO 00000KT 2 1/2SM BR OVC013 13/13 A3020 RMK AO2 T01330128
KAPN 170512Z AUTO 00000KT 3/4SM BR BKN013 14/13 A3019 RMK AO2 T01440133
KAPN 170454Z AUTO 00000KT 10SM OVC013 14/14 A3019 RMK AO2 SLP224 T01440139 402060144
KAPN 170354Z AUTO 00000KT 10SM OVC010 16/14 A3019 RMK AO2 SLP225 T01610144
KAPN 170254Z AUTO 01003KT 10SM OVC011 16/14 A3019 RMK AO2 SLP223 T01560144 51009
KAPN 170116Z AUTO 00000KT 10SM BKN018 15/14 A3017 RMK AO2 T01500139
KAPN 170054Z AUTO 00000KT 10SM CLR 15/14 A3017 RMK AO2 SLP218 T01500139
KAPN 170001Z AUTO 05003KT 10SM FEW002 SCT020 16/14 A3016 RMK AO2 T01610144
KAPN 162354Z AUTO 04004KT 10SM FEW002 BKN020 16/15 A3016 RMK AO2 SLP213 T01610150 10206 20161 51005
KAPN 162254Z AUTO 03006KT 10SM OVC020 19/16 A3016 RMK AO2 SLP211 T01890161
KAPN 162154Z AUTO 36006KT 10SM OVC019 19/16 A3015 RMK AO2 SLP209 T01890161
KAPN 162054Z AUTO 01007KT 10SM OVC018 19/16 A3014 RMK AO2 SLP207 T01940161 55003
KAPN 161954Z VRB03KT 10SM OVC019 20/16 A3014 RMK AO2 SLP206 T02000156